Time;durP1;ratioP1;P1;durP2;ratioP2;P2;SDS_P1;SDS_P2;PMS_P1;PMS_P2;Temp;Humidity;BMP_temperature;BMP_pressure;BME280_temperature;BME280_humidity;BME280_pressure;Samples;Min_cycle;Max_cycle;Signal;HPM_P1;HPM_P2
2024/03/08 00:01:16;;;;;;;22.57;16.67;;;7.70;93.90;;;;;;4944147;29;20195;-62
2024/03/08 00:03:42;;;;;;;23.53;16.07;;;7.70;92.70;;;;;;4953547;29;20800;-63
2024/03/08 00:06:08;;;;;;;22.60;16.50;;;7.70;93.00;;;;;;4936398;29;20913;-63
2024/03/08 00:08:34;;;;;;;24.23;16.10;;;7.70;93.10;;;;;;4939978;29;20536;-64
2024/03/08 00:11:00;;;;;;;25.07;15.60;;;7.70;96.20;;;;;;4941586;29;20468;-63
2024/03/08 00:13:25;;;;;;;23.10;16.37;;;7.80;95.10;;;;;;4943697;29;20436;-63
2024/03/08 00:15:51;;;;;;;18.80;15.77;;;7.80;94.70;;;;;;4937661;29;20181;-63
2024/03/08 00:18:17;;;;;;;21.53;15.73;;;7.80;94.00;;;;;;4954248;29;20208;-63
2024/03/08 00:20:44;;;;;;;20.53;15.60;;;7.80;94.50;;;;;;4953030;29;20195;-63
2024/03/08 00:23:10;;;;;;;25.03;16.63;;;7.80;94.70;;;;;;4950850;29;20177;-61
2024/03/08 00:25:37;;;;;;;19.03;14.90;;;7.70;94.60;;;;;;4935155;29;20412;-63
2024/03/08 00:28:04;;;;;;;22.37;15.70;;;7.80;95.30;;;;;;4918543;29;20564;-63
2024/03/08 00:30:31;;;;;;;20.73;15.50;;;7.80;95.50;;;;;;4939173;29;20480;-63
2024/03/08 00:32:56;;;;;;;24.50;17.70;;;7.90;94.20;;;;;;4948583;29;20440;-63
2024/03/08 00:35:22;;;;;;;18.47;15.93;;;7.90;92.90;;;;;;4946796;29;20440;-62
2024/03/08 00:37:48;;;;;;;23.50;15.90;;;8.00;92.80;;;;;;4952857;29;20519;-63
2024/03/08 00:40:14;;;;;;;20.70;15.87;;;7.90;94.20;;;;;;4954097;29;20184;-61
2024/03/08 00:42:41;;;;;;;23.60;16.50;;;7.90;96.90;;;;;;4935696;29;20436;-62
2024/03/08 00:45:07;;;;;;;23.77;16.07;;;8.00;95.90;;;;;;4939406;29;20979;-63
2024/03/08 00:47:33;;;;;;;20.83;15.93;;;8.00;93.40;;;;;;4931577;29;21060;-63
2024/03/08 00:49:59;;;;;;;22.30;17.23;;;7.90;93.70;;;;;;4950107;29;20468;-64
2024/03/08 00:52:25;;;;;;;25.03;18.40;;;7.90;95.30;;;;;;4951566;29;20189;-63
2024/03/08 00:54:50;;;;;;;25.07;18.00;;;7.90;93.40;;;;;;4954237;29;20232;-62
2024/03/08 00:57:16;;;;;;;20.70;16.00;;;7.90;92.70;;;;;;4934900;29;20657;-61
2024/03/08 00:59:42;;;;;;;25.60;17.67;;;7.80;92.60;;;;;;4952279;28;20201;-62
2024/03/08 01:02:10;;;;;;;24.07;16.77;;;7.70;92.40;;;;;;4935183;29;20279;-62
2024/03/08 01:04:36;;;;;;;24.73;16.13;;;7.60;91.90;;;;;;4934502;29;20298;-62
2024/03/08 01:07:02;;;;;;;21.33;17.13;;;7.60;92.50;;;;;;4952328;29;20866;-62
2024/03/08 01:09:28;;;;;;;22.97;16.10;;;7.50;93.30;;;;;;4943385;29;20299;-62
2024/03/08 01:11:55;;;;;;;22.63;15.70;;;7.60;94.20;;;;;;4936897;29;20441;-63
2024/03/08 01:14:29;;;;;;;24.53;17.30;;;7.60;93.30;;;;;;4943685;29;20432;-61
2024/03/08 01:16:54;;;;;;;20.63;15.53;;;7.60;92.70;;;;;;4952667;29;20436;-63
2024/03/08 01:19:20;;;;;;;23.77;17.00;;;7.50;93.40;;;;;;4944468;29;20472;-62
2024/03/08 01:21:46;;;;;;;22.90;17.37;;;7.40;92.90;;;;;;4942217;29;20169;-62
2024/03/08 01:24:12;;;;;;;23.50;17.57;;;7.40;92.40;;;;;;4939125;29;20191;-62
2024/03/08 01:26:38;;;;;;;22.40;16.93;;;7.30;92.20;;;;;;4939856;29;20537;-62
2024/03/08 01:29:04;;;;;;;26.37;17.93;;;7.30;93.00;;;;;;4933515;29;20826;-62
2024/03/08 01:31:30;;;;;;;25.03;17.77;;;7.30;95.40;;;;;;4953298;29;20428;-62
2024/03/08 01:33:57;;;;;;;23.27;17.10;;;7.30;94.40;;;;;;4941846;29;20185;-63
2024/03/08 01:36:23;;;;;;;24.37;16.93;;;7.20;94.30;;;;;;4941535;29;20523;-62
2024/03/08 01:38:49;;;;;;;21.37;15.20;;;7.20;95.20;;;;;;4946544;29;20504;-61
2024/03/08 01:41:17;;;;;;;24.73;17.27;;;7.30;96.20;;;;;;4953491;29;20467;-61
2024/03/08 01:43:43;;;;;;;24.80;17.33;;;7.30;95.00;;;;;;4943249;29;20447;-62
2024/03/08 01:46:12;;;;;;;22.67;15.60;;;7.40;94.00;;;;;;4935521;29;20446;-63
2024/03/08 01:48:38;;;;;;;23.60;17.17;;;7.20;95.00;;;;;;4934004;29;20481;-62
2024/03/08 01:51:05;;;;;;;25.73;17.30;;;7.20;94.70;;;;;;4947267;29;20466;-63
2024/03/08 01:53:32;;;;;;;23.63;16.47;;;7.30;95.10;;;;;;4946564;29;20490;-62
2024/03/08 01:55:58;;;;;;;25.17;17.13;;;7.30;96.00;;;;;;4934567;29;20431;-62
2024/03/08 01:58:28;;;;;;;24.67;16.63;;;7.20;97.20;;;;;;4951630;29;20486;-62
2024/03/08 02:00:55;;;;;;;21.20;15.87;;;7.20;94.90;;;;;;4956464;28;20545;-62
2024/03/08 02:03:22;;;;;;;25.67;17.50;;;7.20;94.30;;;;;;4934012;29;20448;-61
2024/03/08 02:05:48;;;;;;;23.00;15.80;;;7.20;94.10;;;;;;4953487;29;20972;-62
2024/03/08 02:08:14;;;;;;;22.87;17.97;;;7.20;95.10;;;;;;4951645;29;20486;-62
2024/03/08 02:10:49;;;;;;;23.30;17.67;;;7.30;95.30;;;;;;4942050;28;20484;-61
2024/03/08 02:13:15;;;;;;;24.03;18.00;;;7.20;96.20;;;;;;4934940;29;20768;-61
2024/03/08 02:15:56;;;;;;;22.83;16.47;;;7.20;97.00;;;;;;4949690;29;20952;-61
2024/03/08 02:18:23;;;;;;;25.85;20.20;;;7.20;94.80;;;;;;4954681;29;20435;-61
2024/03/08 02:20:56;;;;;;;24.60;17.83;;;7.30;95.00;;;;;;4954937;29;20188;-61
2024/03/08 02:23:23;;;;;;;25.77;18.53;;;7.30;96.10;;;;;;4942932;29;20432;-61
2024/03/08 02:25:49;;;;;;;25.57;17.87;;;7.30;96.10;;;;;;4945095;29;20484;-61
2024/03/08 02:28:15;;;;;;;25.23;17.50;;;7.30;94.80;;;;;;4938468;29;20567;-62
2024/03/08 02:30:41;;;;;;;22.20;16.63;;;7.20;94.30;;;;;;4947543;29;20734;-61
2024/03/08 02:33:09;;;;;;;29.67;18.00;;;7.20;95.00;;;;;;4955173;29;20416;-62
2024/03/08 02:35:35;;;;;;;23.13;17.27;;;7.10;95.80;;;;;;4901030;29;20422;-61
2024/03/08 02:38:03;;;;;;;25.33;17.30;;;7.10;94.60;;;;;;4938025;29;20458;-61
2024/03/08 02:40:29;;;;;;;28.23;18.23;;;7.10;93.90;;;;;;4937551;29;20437;-61
2024/03/08 02:42:55;;;;;;;25.53;17.97;;;7.00;95.30;;;;;;4947048;29;20449;-61
2024/03/08 02:45:21;;;;;;;25.57;18.00;;;7.00;95.70;;;;;;4947993;29;20447;-62
2024/03/08 02:47:49;;;;;;;23.37;16.80;;;6.90;94.70;;;;;;4942649;29;20218;-61
2024/03/08 02:50:16;;;;;;;25.53;17.37;;;7.00;95.10;;;;;;4955888;29;20264;-62
2024/03/08 02:52:42;;;;;;;24.50;18.13;;;6.90;95.00;;;;;;4949147;29;21011;-62
2024/03/08 02:55:10;;;;;;;25.80;17.50;;;6.90;94.80;;;;;;4955096;29;20767;-62
2024/03/08 02:57:36;;;;;;;24.23;17.80;;;6.90;94.90;;;;;;4955820;29;20430;-62
2024/03/08 03:00:03;;;;;;;29.10;17.50;;;6.80;95.20;;;;;;4954637;29;20449;-62
2024/03/08 03:02:29;;;;;;;22.90;17.30;;;6.80;94.80;;;;;;4937084;29;20459;-62
2024/03/08 03:04:55;;;;;;;24.90;17.30;;;6.80;94.40;;;;;;4945645;29;20466;-62
2024/03/08 03:07:21;;;;;;;24.90;17.67;;;6.80;94.40;;;;;;4948148;29;20188;-62
2024/03/08 03:09:47;;;;;;;26.27;18.23;;;6.80;94.80;;;;;;4954287;29;20466;-62
2024/03/08 03:12:13;;;;;;;26.23;17.27;;;6.50;94.40;;;;;;4937740;29;20510;-62
2024/03/08 03:14:39;;;;;;;24.20;17.73;;;6.50;94.60;;;;;;4947428;29;20199;-62
2024/03/08 03:17:05;;;;;;;26.67;17.17;;;6.60;94.60;;;;;;4945560;29;20498;-62
2024/03/08 03:19:31;;;;;;;26.67;18.10;;;6.40;94.20;;;;;;4943016;29;20187;-62
2024/03/08 03:21:57;;;;;;;23.70;16.87;;;6.20;95.70;;;;;;4940024;29;20417;-62
2024/03/08 03:24:23;;;;;;;24.70;17.40;;;5.90;98.50;;;;;;4938117;29;20191;-62
2024/03/08 03:26:49;;;;;;;24.97;17.47;;;;;;;;;;4936485;29;20406;-61
2024/03/08 03:29:16;;;;;;;26.40;17.40;;;6.00;97.10;;;;;;4945245;29;20493;-62
2024/03/08 03:31:46;;;;;;;25.50;16.77;;;5.80;96.50;;;;;;4943646;29;20953;-62
2024/03/08 03:34:12;;;;;;;24.37;17.60;;;5.80;97.70;;;;;;4956012;29;20403;-62
2024/03/08 03:36:42;;;;;;;27.03;18.30;;;6.00;98.40;;;;;;4943327;29;20434;-62
2024/03/08 03:39:12;;;;;;;25.37;17.20;;;6.00;98.40;;;;;;4946797;29;20877;-62
2024/03/08 03:41:39;;;;;;;24.90;17.20;;;6.20;98.70;;;;;;4920544;29;20420;-62
2024/03/08 03:44:07;;;;;;;27.20;16.83;;;6.20;97.10;;;;;;4946831;29;20481;-62
2024/03/08 03:46:33;;;;;;;24.43;17.40;;;6.20;97.50;;;;;;4948881;29;20408;-62
2024/03/08 03:48:59;;;;;;;26.70;16.50;;;6.30;97.20;;;;;;4936155;29;20424;-62
2024/03/08 03:51:25;;;;;;;24.17;16.37;;;6.30;97.20;;;;;;4941870;29;20796;-61
2024/03/08 03:53:52;;;;;;;25.43;16.90;;;6.20;96.20;;;;;;4935664;29;20243;-62
2024/03/08 03:56:18;;;;;;;26.48;18.90;;;6.00;95.40;;;;;;4934414;29;20935;-62
2024/03/08 03:58:44;;;;;;;25.30;17.80;;;5.70;96.30;;;;;;4935379;29;20328;-62
2024/03/08 04:01:10;;;;;;;23.63;16.50;;;5.60;96.80;;;;;;4934750;29;20712;-62
2024/03/08 04:03:36;;;;;;;25.77;17.17;;;5.50;99.90;;;;;;4936754;29;20526;-62
2024/03/08 04:06:04;;;;;;;27.67;17.00;;;5.60;99.30;;;;;;4936140;29;20209;-62
2024/03/08 04:08:30;;;;;;;24.37;15.63;;;5.70;98.30;;;;;;4939326;29;20441;-61
2024/03/08 04:10:58;;;;;;;26.38;17.60;;;5.80;97.30;;;;;;4944942;29;20932;-62
2024/03/08 04:13:23;;;;;;;24.37;16.47;;;5.40;97.50;;;;;;4955461;28;20233;-62
2024/03/08 04:15:49;;;;;;;24.20;17.27;;;5.30;98.30;;;;;;4940905;29;20430;-62
2024/03/08 04:18:15;;;;;;;26.80;16.90;;;5.30;98.20;;;;;;4950133;29;20182;-64
2024/03/08 04:20:41;;;;;;;27.63;18.00;;;5.00;98.80;;;;;;4941336;29;20192;-63
2024/03/08 04:23:06;;;;;;;29.03;17.43;;;4.70;99.90;;;;;;4943206;29;20174;-63
2024/03/08 04:25:33;;;;;;;25.87;17.10;;;4.70;99.90;;;;;;4950265;29;20658;-63
2024/03/08 04:27:58;;;;;;;26.55;17.25;;;4.70;99.90;;;;;;4912109;29;20497;-64
2024/03/08 04:30:24;;;;;;;29.80;18.20;;;4.80;99.90;;;;;;4916428;29;20203;-61
2024/03/08 04:32:50;;;;;;;24.17;16.47;;;4.60;99.90;;;;;;4917096;29;20224;-63
2024/03/08 04:35:17;;;;;;;25.70;17.58;;;4.50;99.90;;;;;;4919182;29;20261;-63
2024/03/08 04:37:43;;;;;;;24.67;17.27;;;4.40;99.90;;;;;;4925274;29;20183;-63
2024/03/08 04:40:09;;;;;;;27.20;17.97;;;4.50;99.90;;;;;;4930591;29;20214;-64
2024/03/08 04:42:36;;;;;;;25.93;17.70;;;4.10;99.90;;;;;;4921945;29;20519;-63
2024/03/08 04:45:04;;;;;;;25.40;17.52;;;4.10;99.90;;;;;;4925423;29;20803;-64
2024/03/08 04:47:29;;;;;;;23.15;16.27;;;4.20;99.90;;;;;;4926051;29;20178;-62
2024/03/08 04:49:56;;;;;;;26.70;17.00;;;4.10;99.90;;;;;;4915680;29;20699;-63
2024/03/08 04:52:22;;;;;;;28.20;17.08;;;4.10;99.90;;;;;;4922397;29;20523;-63
2024/03/08 04:54:48;;;;;;;28.97;17.40;;;4.00;99.90;;;;;;4923050;29;20190;-64
2024/03/08 04:57:13;;;;;;;27.98;16.88;;;4.10;99.90;;;;;;4927061;29;20433;-64
2024/03/08 04:59:39;;;;;;;28.57;17.70;;;4.00;99.90;;;;;;4919404;29;20190;-63
2024/03/08 05:02:07;;;;;;;27.20;17.53;;;4.00;99.90;;;;;;4928365;29;20938;-64
2024/03/08 05:04:32;;;;;;;28.17;18.08;;;4.00;99.90;;;;;;4931896;29;20976;-63
2024/03/08 05:07:01;;;;;;;28.03;16.93;;;3.90;99.90;;;;;;4933194;29;20268;-64
2024/03/08 05:09:28;;;;;;;27.48;17.67;;;3.80;99.90;;;;;;4924094;29;20445;-61
2024/03/08 05:11:54;;;;;;;27.42;16.42;;;3.70;99.90;;;;;;4916164;29;20209;-64
2024/03/08 05:14:20;;;;;;;27.77;16.93;;;3.70;99.90;;;;;;4923454;29;20681;-64
2024/03/08 05:16:48;;;;;;;26.87;17.97;;;3.80;99.90;;;;;;4914462;29;20186;-63
2024/03/08 05:19:16;;;;;;;24.52;16.40;;;3.70;99.90;;;;;;4918951;29;20415;-64
2024/03/08 05:21:44;;;;;;;34.70;17.08;;;4.00;99.90;;;;;;4917176;29;20183;-64
2024/03/08 05:24:10;;;;;;;27.48;17.55;;;4.10;99.90;;;;;;4916717;29;20270;-64
2024/03/08 05:26:37;;;;;;;27.40;18.27;;;4.20;99.90;;;;;;4918005;29;20592;-64
2024/03/08 05:29:03;;;;;;;28.73;18.10;;;4.30;99.90;;;;;;4935393;29;20369;-64
2024/03/08 05:31:30;;;;;;;28.05;18.60;;;4.60;99.90;;;;;;4935850;29;20200;-61
2024/03/08 05:33:56;;;;;;;25.73;17.48;;;4.60;99.90;;;;;;4922064;29;20178;-64
2024/03/08 05:36:22;;;;;;;26.93;17.67;;;4.80;99.90;;;;;;4940066;29;20630;-64
2024/03/08 05:38:50;;;;;;;26.63;16.73;;;4.90;99.90;;;;;;4939530;29;20336;-64
2024/03/08 05:41:17;;;;;;;25.80;16.65;;;5.00;99.90;;;;;;4945792;29;20197;-63
2024/03/08 05:43:43;;;;;;;21.90;16.48;;;5.10;99.90;;;;;;4936129;29;20196;-62
2024/03/08 05:46:11;;;;;;;26.65;17.10;;;5.20;99.90;;;;;;4936804;29;20182;-62
2024/03/08 05:48:37;;;;;;;36.55;21.98;;;5.00;99.90;;;;;;4936672;29;20226;-62
2024/03/08 05:51:03;;;;;;;30.90;19.87;;;5.00;99.90;;;;;;4945764;29;20209;-62
2024/03/08 05:53:32;;;;;;;28.47;18.60;;;5.00;99.90;;;;;;4955924;29;20399;-61
2024/03/08 05:55:58;;;;;;;32.67;21.20;;;5.10;99.90;;;;;;4957543;29;20252;-62
2024/03/08 05:58:24;;;;;;;38.07;22.07;;;5.30;99.90;;;;;;4938533;29;20433;-62
2024/03/08 06:00:50;;;;;;;32.13;18.43;;;5.20;99.90;;;;;;4949111;29;21039;-62
2024/03/08 06:03:16;;;;;;;33.13;20.73;;;5.20;99.90;;;;;;4938375;29;20421;-62
2024/03/08 06:05:41;;;;;;;25.47;18.30;;;5.30;99.90;;;;;;4948979;29;20196;-62
2024/03/08 06:08:08;;;;;;;26.20;17.97;;;5.30;99.80;;;;;;4937947;29;20192;-62
2024/03/08 06:10:33;;;;;;;25.80;18.05;;;5.40;99.60;;;;;;4937329;29;20224;-61
2024/03/08 06:13:01;;;;;;;28.67;18.27;;;5.50;99.40;;;;;;4938157;29;20182;-63
2024/03/08 06:15:27;;;;;;;24.97;17.17;;;5.50;99.30;;;;;;4923327;29;20438;-63
2024/03/08 06:17:52;;;;;;;29.27;17.80;;;5.50;99.10;;;;;;4948908;29;20440;-62
2024/03/08 06:20:18;;;;;;;26.50;17.63;;;5.60;99.90;;;;;;4951085;29;20261;-62
2024/03/08 06:22:44;;;;;;;26.00;18.03;;;5.60;99.50;;;;;;4940494;29;20189;-63
2024/03/08 06:25:14;;;;;;;25.27;16.63;;;5.50;99.50;;;;;;4942445;29;20409;-62
2024/03/08 06:27:43;;;;;;;26.73;17.33;;;5.60;99.20;;;;;;4935774;29;20274;-62
2024/03/08 06:30:10;;;;;;;30.00;19.07;;;5.50;98.90;;;;;;4937517;29;20461;-62
2024/03/08 06:32:37;;;;;;;27.10;18.87;;;5.50;98.80;;;;;;4940910;29;20443;-62
2024/03/08 06:35:06;;;;;;;29.87;18.53;;;5.50;98.90;;;;;;4936567;29;20441;-63
2024/03/08 06:37:32;;;;;;;25.17;18.27;;;5.50;99.00;;;;;;4937828;29;20435;-62
2024/03/08 06:39:58;;;;;;;28.80;20.00;;;5.60;98.90;;;;;;4935707;29;20505;-62
2024/03/08 06:42:24;;;;;;;27.07;17.60;;;5.60;99.10;;;;;;4937239;29;20558;-62
2024/03/08 06:44:59;;;;;;;32.07;19.20;;;5.60;99.00;;;;;;4936281;29;20430;-61
2024/03/08 06:47:25;;;;;;;31.17;18.73;;;5.70;99.00;;;;;;4942395;29;20175;-62
2024/03/08 06:49:52;;;;;;;27.57;17.43;;;5.70;99.10;;;;;;4934202;29;20478;-61
2024/03/08 06:52:18;;;;;;;26.00;18.33;;;5.70;99.10;;;;;;4936372;29;20458;-61
2024/03/08 06:54:44;;;;;;;32.90;19.60;;;6.10;99.20;;;;;;4937917;29;20420;-61
2024/03/08 06:57:10;;;;;;;27.20;17.73;;;5.80;99.00;;;;;;4936275;29;20421;-61
2024/03/08 06:59:36;;;;;;;29.03;20.23;;;6.00;99.20;;;;;;4936984;29;20523;-60
2024/03/08 07:02:03;;;;;;;27.17;19.70;;;5.90;98.90;;;;;;4937011;29;20455;-61
2024/03/08 07:04:29;;;;;;;26.77;18.23;;;6.00;99.10;;;;;;4941711;29;20439;-62
2024/03/08 07:06:57;;;;;;;28.67;19.27;;;6.10;99.90;;;;;;4938051;29;20438;-61
2024/03/08 07:09:24;;;;;;;28.60;18.97;;;6.00;99.80;;;;;;4936242;29;20397;-61
2024/03/08 07:11:54;;;;;;;31.37;17.87;;;6.10;99.80;;;;;;4935390;29;20428;-61
2024/03/08 07:14:23;;;;;;;27.87;18.30;;;6.10;99.10;;;;;;4940482;29;20820;-61
2024/03/08 07:16:49;;;;;;;29.53;19.70;;;6.10;99.50;;;;;;4917202;29;20927;-61
2024/03/08 07:19:16;;;;;;;26.70;17.97;;;6.20;99.60;;;;;;4936234;29;20486;-61
2024/03/08 07:21:44;;;;;;;33.30;20.57;;;6.40;99.90;;;;;;4935625;29;20413;-61
2024/03/08 07:26:49;;;;;;;29.43;18.57;;;6.30;99.90;;;;;;4930271;29;20593;-61
2024/03/08 07:29:15;;;;;;;25.10;18.40;;;6.40;99.90;;;;;;4937093;29;20472;-59
2024/03/08 07:34:07;;;;;;;30.17;18.40;;;6.60;99.90;;;;;;4939462;29;20428;-61
2024/03/08 07:36:34;;;;;;;27.57;19.17;;;6.70;99.90;;;;;;4943282;29;20652;-62
2024/03/08 07:39:01;;;;;;;23.80;19.03;;;6.90;99.90;;;;;;4935767;29;20427;-61
2024/03/08 07:41:27;;;;;;;27.30;19.00;;;6.70;98.20;;;;;;4933914;29;20448;-62
2024/03/08 07:43:53;;;;;;;25.23;18.63;;;6.20;98.30;;;;;;4935728;29;20431;-61
2024/03/08 07:46:19;;;;;;;31.57;19.40;;;6.00;99.30;;;;;;4935263;29;21085;-61
2024/03/08 07:48:46;;;;;;;27.37;19.97;;;5.90;99.90;;;;;;4933326;29;20193;-61
2024/03/08 07:51:12;;;;;;;26.80;18.53;;;6.10;99.90;;;;;;4935910;29;20310;-61
2024/03/08 07:53:38;;;;;;;30.47;18.23;;;6.30;99.90;;;;;;4934321;29;20473;-60
2024/03/08 07:56:09;;;;;;;27.53;17.23;;;6.40;99.90;;;;;;4934096;29;20549;-61
2024/03/08 07:58:34;;;;;;;27.63;18.20;;;6.60;99.90;;;;;;4947252;29;20482;-61
2024/03/08 08:01:00;;;;;;;29.43;19.30;;;7.10;99.90;;;;;;4953039;29;20443;-61
2024/03/08 08:03:27;;;;;;;24.87;17.50;;;7.80;99.90;;;;;;4926227;29;20195;-61
2024/03/08 08:05:53;;;;;;;26.83;19.67;;;8.60;99.90;;;;;;4947053;29;20433;-61
2024/03/08 08:08:19;;;;;;;26.93;20.80;;;9.20;99.90;;;;;;4938857;29;20794;-61
2024/03/08 08:10:44;;;;;;;29.20;21.60;;;9.80;99.90;;;;;;4935571;29;20457;-61
2024/03/08 08:13:11;;;;;;;30.80;22.63;;;10.20;98.90;;;;;;4955509;29;20185;-61
2024/03/08 08:15:36;;;;;;;42.70;28.87;;;10.60;98.70;;;;;;4953453;29;20565;-61
2024/03/08 08:18:05;;;;;;;34.97;25.27;;;11.10;99.60;;;;;;4936023;29;20434;-61
2024/03/08 08:20:31;;;;;;;31.87;23.97;;;11.40;96.90;;;;;;4955334;29;20275;-61
2024/03/08 08:22:58;;;;;;;28.20;23.23;;;11.70;94.20;;;;;;4952399;29;20903;-61
2024/03/08 08:25:24;;;;;;;31.50;22.30;;;11.80;93.20;;;;;;4950059;29;20443;-61
2024/03/08 08:27:50;;;;;;;29.27;21.80;;;12.00;93.30;;;;;;4954078;29;20460;-61
2024/03/08 08:30:16;;;;;;;28.30;21.60;;;12.00;90.10;;;;;;4953135;29;20294;-61
2024/03/08 08:32:42;;;;;;;29.97;21.20;;;12.20;91.90;;;;;;4954263;29;20238;-61
2024/03/08 08:35:12;;;;;;;33.93;23.00;;;12.30;90.90;;;;;;4949668;29;20532;-61
2024/03/08 08:37:41;;;;;;;45.47;31.53;;;12.30;87.40;;;;;;4941608;29;20447;-61
2024/03/08 08:40:14;;;;;;;29.07;24.43;;;12.20;91.20;;;;;;4954173;29;20419;-61
2024/03/08 08:42:40;;;;;;;32.77;24.10;;;12.20;87.50;;;;;;4952157;29;20446;-61
2024/03/08 08:45:10;;;;;;;43.17;28.87;;;12.40;89.30;;;;;;4951857;29;20529;-61
2024/03/08 08:47:36;;;;;;;36.40;24.87;;;12.40;85.10;;;;;;4953700;29;20472;-61
2024/03/08 08:50:04;;;;;;;210.80;124.60;;;12.50;92.40;;;;;;4953704;29;20457;-62
2024/03/08 08:52:31;;;;;;;230.23;140.90;;;13.10;97.10;;;;;;4953855;29;20440;-63
2024/03/08 08:54:57;;;;;;;277.13;154.13;;;14.00;95.80;;;;;;4951213;29;20527;-63
2024/03/08 08:57:23;;;;;;;197.50;121.40;;;14.50;95.70;;;;;;4952591;29;20525;-62
2024/03/08 08:59:50;;;;;;;189.20;116.90;;;15.20;93.10;;;;;;4953598;29;20848;-63
2024/03/08 09:02:16;;;;;;;75.43;53.30;;;15.20;92.20;;;;;;4950287;29;20534;-63
2024/03/08 09:04:43;;;;;;;69.77;51.67;;;15.70;87.50;;;;;;4951996;29;21008;-62
2024/03/08 09:07:09;;;;;;;26.30;21.90;;;15.80;89.40;;;;;;4954197;29;20420;-62
2024/03/08 09:09:36;;;;;;;38.13;28.77;;;15.60;72.80;;;;;;4952365;29;20468;-63
2024/03/08 09:12:01;;;;;;;74.43;50.63;;;15.40;86.60;;;;;;4934631;29;20296;-63
2024/03/08 09:14:27;;;;;;;25.83;21.73;;;15.70;88.70;;;;;;4954217;29;20497;-62
2024/03/08 09:16:53;;;;;;;26.20;22.23;;;15.30;68.50;;;;;;4949916;29;20187;-62
2024/03/08 09:19:19;;;;;;;76.97;44.67;;;13.90;74.90;;;;;;4952390;29;20988;-62
2024/03/08 09:21:45;;;;;;;53.43;37.97;;;13.60;91.50;;;;;;4953587;29;20181;-62
2024/03/08 09:24:12;;;;;;;60.13;39.63;;;14.30;89.20;;;;;;4953008;29;20437;-63
2024/03/08 09:26:40;;;;;;;28.93;20.90;;;14.90;91.40;;;;;;4951793;29;20434;-62
2024/03/08 09:29:07;;;;;;;24.63;18.20;;;15.10;75.20;;;;;;4953447;29;20496;-61
2024/03/08 09:31:33;;;;;;;22.83;18.47;;;14.70;72.90;;;;;;4951963;29;20474;-62
2024/03/08 09:33:59;;;;;;;24.97;19.73;;;14.10;71.80;;;;;;4951441;29;20440;-60
2024/03/08 09:36:25;;;;;;;112.77;67.87;;;13.60;73.30;;;;;;4953921;29;20408;-61
2024/03/08 09:38:51;;;;;;;134.80;76.10;;;13.20;76.00;;;;;;4951303;29;20209;-61
2024/03/08 09:41:17;;;;;;;46.63;32.27;;;13.10;80.60;;;;;;4952137;29;20535;-61
2024/03/08 09:43:44;;;;;;;33.30;24.97;;;12.70;78.40;;;;;;4953948;29;20466;-61
2024/03/08 09:46:11;;;;;;;30.50;20.17;;;12.60;83.10;;;;;;4951843;29;20463;-61
2024/03/08 09:48:38;;;;;;;25.77;20.67;;;12.60;83.00;;;;;;4952182;29;20438;-61
2024/03/08 09:51:05;;;;;;;22.00;18.83;;;12.60;82.90;;;;;;4953103;29;20529;-61
2024/03/08 09:53:30;;;;;;;23.40;18.70;;;12.70;82.00;;;;;;4945162;29;21004;-61
2024/03/08 09:55:56;;;;;;;27.43;20.90;;;12.70;82.60;;;;;;4930585;29;20521;-61
2024/03/08 09:58:36;;;;;;;24.33;20.80;;;12.80;80.50;;;;;;4951413;29;20464;-61
2024/03/08 10:01:04;;;;;;;25.03;19.90;;;12.80;81.50;;;;;;4951512;29;20440;-60
2024/03/08 10:03:32;;;;;;;24.10;18.07;;;12.80;84.00;;;;;;4953713;29;20407;-60
2024/03/08 10:06:01;;;;;;;23.77;19.50;;;12.90;81.80;;;;;;4951577;29;20483;-60
2024/03/08 10:08:30;;;;;;;28.90;19.93;;;13.00;80.80;;;;;;4951844;29;20450;-60
2024/03/08 10:10:59;;;;;;;26.70;18.60;;;13.20;82.30;;;;;;4952830;29;20456;-60
2024/03/08 10:13:29;;;;;;;26.10;19.60;;;13.40;79.70;;;;;;4951818;29;20437;-60
2024/03/08 10:15:54;;;;;;;25.77;19.40;;;13.50;79.40;;;;;;4950327;29;20512;-60
2024/03/08 10:18:22;;;;;;;22.60;19.00;;;13.70;79.80;;;;;;4953638;29;20425;-60
2024/03/08 10:21:07;;;;;;;26.67;20.17;;;13.90;80.30;;;;;;4951271;29;20185;-60
2024/03/08 10:23:33;;;;;;;24.13;19.60;;;14.10;80.70;;;;;;4951961;29;20434;-60
2024/03/08 10:26:17;;;;;;;22.97;18.73;;;14.30;81.80;;;;;;4952816;29;20813;-59
2024/03/08 10:28:48;;;;;;;24.20;19.43;;;14.30;76.00;;;;;;4953300;29;20558;-59
2024/03/08 10:31:19;;;;;;;22.97;18.83;;;14.30;77.00;;;;;;4953208;28;20439;-60
2024/03/08 10:33:45;;;;;;;27.83;21.80;;;14.50;77.80;;;;;;4953636;29;20437;-60
2024/03/08 10:36:13;;;;;;;24.37;20.50;;;14.50;77.00;;;;;;4953924;29;20418;-59
2024/03/08 10:38:41;;;;;;;27.10;21.27;;;14.60;76.50;;;;;;4918839;29;20584;-60
2024/03/08 10:41:09;;;;;;;23.33;20.20;;;14.80;78.50;;;;;;4938828;29;21015;-59
2024/03/08 10:44:19;;;;;;;25.20;20.13;;;15.10;78.80;;;;;;4954956;29;20411;-59
2024/03/08 10:46:45;;;;;;;26.57;19.70;;;14.80;74.10;;;;;;4956396;29;20498;-60
2024/03/08 10:49:17;;;;;;;24.33;20.20;;;15.00;77.20;;;;;;4953810;29;20877;-59
2024/03/08 10:51:44;;;;;;;22.47;18.37;;;15.30;75.90;;;;;;4938219;29;20269;-60
2024/03/08 10:54:11;;;;;;;27.80;20.63;;;15.40;73.20;;;;;;4955856;29;20404;-60
2024/03/08 10:56:39;;;;;;;24.20;20.43;;;15.70;74.10;;;;;;4944565;29;20464;-60
2024/03/08 10:59:08;;;;;;;23.50;19.00;;;15.80;71.70;;;;;;4936854;29;20452;-60
2024/03/08 11:01:34;;;;;;;25.47;19.50;;;16.00;72.90;;;;;;4937396;29;20444;-58
2024/03/08 11:04:04;;;;;;;24.50;21.17;;;16.30;71.50;;;;;;4938803;29;20465;-58
2024/03/08 11:06:36;;;;;;;25.97;19.93;;;16.40;71.30;;;;;;4946960;29;20228;-58
2024/03/08 11:09:03;;;;;;;24.50;20.17;;;16.50;69.80;;;;;;4938259;29;20429;-58
2024/03/08 11:11:36;;;;;;;22.43;18.40;;;16.50;69.30;;;;;;4954997;29;20464;-58
2024/03/08 11:14:02;;;;;;;23.27;20.17;;;16.50;69.50;;;;;;4936004;29;20438;-58
2024/03/08 11:16:28;;;;;;;22.77;20.03;;;16.80;69.50;;;;;;4938564;29;20818;-58
2024/03/08 11:19:04;;;;;;;24.87;19.73;;;16.80;69.30;;;;;;4950352;29;20471;-58
2024/03/08 11:21:33;;;;;;;22.97;18.60;;;16.80;66.00;;;;;;4935927;29;20416;-58
2024/03/08 11:24:17;;;;;;;26.27;20.33;;;16.90;68.00;;;;;;4942840;29;20418;-58
2024/03/08 11:26:46;;;;;;;15.07;13.40;;;17.10;67.00;;;;;;4941787;29;20441;-61
2024/03/08 11:29:27;;;;;;;13.40;11.67;;;17.10;62.90;;;;;;4934939;29;20473;-59
2024/03/08 11:32:03;;;;;;;12.57;10.83;;;16.30;57.40;;;;;;4940247;29;20441;-58
2024/03/08 11:34:30;;;;;;;10.60;9.50;;;15.90;58.20;;;;;;4939807;29;20425;-58
2024/03/08 11:36:56;;;;;;;10.60;9.50;;;15.90;58.10;;;;;;4943521;29;20460;-58
2024/03/08 11:39:24;;;;;;;11.03;9.83;;;15.80;57.60;;;;;;4940073;29;20457;-58
2024/03/08 11:41:49;;;;;;;11.17;10.00;;;15.70;58.10;;;;;;4948334;29;20418;-58
2024/03/08 11:44:16;;;;;;;11.10;10.10;;;15.30;57.60;;;;;;4925787;29;20535;-57
2024/03/08 11:46:46;;;;;;;12.80;11.60;;;15.40;59.10;;;;;;4936531;29;20430;-58
2024/03/08 11:49:13;;;;;;;11.03;9.90;;;15.20;56.90;;;;;;4935211;29;20467;-58
2024/03/08 11:51:39;;;;;;;11.30;10.20;;;15.20;57.60;;;;;;4935381;29;20812;-58
2024/03/08 11:54:06;;;;;;;12.33;9.93;;;15.20;57.60;;;;;;4933569;29;20455;-57
2024/03/08 11:56:32;;;;;;;10.43;9.30;;;15.30;57.50;;;;;;4934400;29;20418;-57
2024/03/08 11:58:58;;;;;;;10.43;9.40;;;15.50;57.10;;;;;;4934402;29;20822;-58
2024/03/08 12:01:24;;;;;;;10.07;9.07;;;15.50;56.10;;;;;;4935967;29;20429;-58
2024/03/08 12:03:55;;;;;;;10.30;9.30;;;15.50;56.60;;;;;;4934271;29;20429;-58
2024/03/08 12:06:21;;;;;;;10.30;9.40;;;15.60;57.00;;;;;;4935954;29;20421;-57
2024/03/08 12:08:50;;;;;;;10.00;8.93;;;15.60;56.60;;;;;;4935557;29;20794;-58
2024/03/08 12:11:22;;;;;;;9.47;8.20;;;15.60;56.10;;;;;;4934720;29;20532;-57
2024/03/08 12:13:50;;;;;;;10.23;9.23;;;15.80;57.00;;;;;;4937281;29;20430;-59
2024/03/08 12:16:23;;;;;;;10.77;9.67;;;15.90;56.40;;;;;;4934714;29;20835;-59
2024/03/08 12:18:52;;;;;;;11.47;9.43;;;15.80;55.40;;;;;;4935601;29;20420;-59
2024/03/08 12:21:20;;;;;;;10.20;9.00;;;15.50;56.40;;;;;;4934077;29;20430;-58
2024/03/08 12:23:50;;;;;;;10.83;9.73;;;15.60;56.40;;;;;;4941621;29;20959;-58
2024/03/08 12:26:25;;;;;;;11.70;9.87;;;15.60;56.00;;;;;;4942554;29;20417;-57
2024/03/08 12:28:53;;;;;;;11.43;10.23;;;15.90;57.60;;;;;;4935260;29;20948;-58
2024/03/08 12:31:21;;;;;;;11.40;10.27;;;16.00;56.80;;;;;;4934946;29;20585;-58
2024/03/08 12:33:52;;;;;;;10.57;9.60;;;16.00;56.30;;;;;;4927745;29;20443;-57
2024/03/08 12:36:19;;;;;;;10.93;9.80;;;15.80;55.70;;;;;;4949678;29;20436;-59
2024/03/08 12:38:50;;;;;;;10.00;9.10;;;15.40;55.00;;;;;;4935043;29;20448;-59